Charlton, New York
Current Conditions -  °F | °C
As of 12:51 PM on Sunday 25 Jan 2015 (Local Time) from KALB Reporting Station
Few Clouds Few Clouds  
Wind Chill: 14°   Ceiling: Unl
Heat Index: 27°   Visibility: 10mi
Dew Point:   Wind: 18mph
Humidity: 45%   Direction: 270°W
Pressure: 29.79"   Gusts: NA
Location:  42.9234°N, 73.8412°W
Report Text: KALB 251751Z 27016KT 10SM FEW040 FEW250 M03/M13 A2979 RMK AO2 PK WND 29027/1725 SLP091 4/001 60000 T10281133 10000 21028 51015
Loading
Personal Weather Stations






























Interactive Weather Map New forecast layout! Learn more

10-Day Weather Forecast

Advertisements
Track Severe Weather on mobile